LIMF/TRN METAR and TAF weather

Enter ICAO airport designator
Station Type Date Time Source
LIMF METAR 2020/07/14 05:50 UTC NOAA

LIMF 140550Z 36003KT 9999 BKN055 20/14 Q1017


Station Type Date Time Source
LIMF Decoded METAR 2020/07/14 05:50 UTC NOAA

Torino / Caselle, Italy (LIMF) 45-13N 007-39E 287M
Jul 14, 2020 - 01:50 AM EDT / 2020.07.14 0550 UTC
Wind: from the N (360 degrees) at 3 MPH (3 KT):0
Visibility: greater than 7 mile(s):0
Sky conditions: mostly cloudy
Temperature: 68 F (20 C)
Dew Point: 57 F (14 C)
Relative Humidity: 68%
Pressure (altimeter): 30.03 in. Hg (1017 hPa)
ob: LIMF 140550Z 36003KT 9999 BKN055 20/14 Q1017
cycle: 6

Station Type Date Time Source
LIMF TAF 2020/07/14 06:26 UTC NOAA

TAF LIMF 140500Z 1406/1506 VRB05KT 9999 SCT060

Example: see airport list